Time;durP1;ratioP1;P1;durP2;ratioP2;P2;SDS_P1;SDS_P2;PMS_P1;PMS_P2;Temp;Humidity;BMP_temperature;BMP_pressure;BME280_temperature;BME280_humidity;BME280_pressure;Samples;Min_cycle;Max_cycle;Signal;HPM_P1;HPM_P2
2024/01/15 00:00:08;;;;;;;728.13;68.85;;;;;;;;;;4750771;29;20054;-90
2024/01/15 00:02:37;;;;;;;735.53;70.13;;;;;;;;;;4777824;29;20224;-90
2024/01/15 00:05:04;;;;;;;774.15;73.75;;;;;;;;;;4759797;29;20045;-90
2024/01/15 00:07:31;;;;;;;790.05;75.57;;;;;;;;;;4746367;29;20045;-90
2024/01/15 00:09:58;;;;;;;770.00;73.53;;;;;;;;;;4761921;29;20964;-90
2024/01/15 00:12:25;;;;;;;773.97;75.20;;;;;;;;;;4751130;29;20844;-90
2024/01/15 00:14:51;;;;;;;752.95;72.82;;;;;;;;;;4747965;29;20055;-90
2024/01/15 00:17:18;;;;;;;761.83;73.50;;;;;;;;;;4777261;29;21116;-90
2024/01/15 00:19:45;;;;;;;802.78;77.75;;;;;;;;;;4762508;29;20048;-90
2024/01/15 00:22:12;;;;;;;792.78;77.30;;;;;;;;;;4776707;29;20070;-90
2024/01/15 00:24:39;;;;;;;761.92;73.25;;;;;;;;;;4752615;29;20052;-91
2024/01/15 00:27:06;;;;;;;752.55;72.70;;;;;;;;;;4772246;29;20041;-91
2024/01/15 00:29:32;;;;;;;762.08;74.00;;;;;;;;;;4779625;29;20037;-91
2024/01/15 00:31:59;;;;;;;763.10;75.57;;;;;;;;;;4759112;29;20045;-91
2024/01/15 00:34:27;;;;;;;740.33;73.13;;;;;;;;;;4758501;29;21133;-91
2024/01/15 00:36:54;;;;;;;762.72;73.18;;;;;;;;;;4778930;29;20118;-91
2024/01/15 00:39:21;;;;;;;737.67;71.00;;;;;;;;;;4761255;29;20562;-91
2024/01/15 00:41:47;;;;;;;766.60;72.38;;;;;;;;;;4753003;29;20421;-90
2024/01/15 00:44:15;;;;;;;756.80;73.43;;;;;;;;;;4778962;29;21264;-90
2024/01/15 00:46:45;;;;;;;738.47;71.68;;;;;;;;;;4753817;29;20042;-90
2024/01/15 00:49:13;;;;;;;764.70;73.93;;;;;;;;;;4777038;29;20888;-90
2024/01/15 00:51:40;;;;;;;790.00;77.35;;;;;;;;;;4747827;29;20048;-90
2024/01/15 00:54:07;;;;;;;766.13;73.97;;;;;;;;;;4752531;29;20041;-90
2024/01/15 00:56:33;;;;;;;787.58;76.78;;;;;;;;;;4772755;29;20053;-90
2024/01/15 00:59:00;;;;;;;759.88;72.78;;;;;;;;;;4779621;29;20052;-90
2024/01/15 01:01:27;;;;;;;735.58;70.95;;;;;;;;;;4775086;29;20041;-90
2024/01/15 01:03:54;;;;;;;726.38;69.20;;;;;;;;;;4781907;29;20045;-90
2024/01/15 01:06:21;;;;;;;724.42;69.53;;;;;;;;;;4761408;29;20056;-90
2024/01/15 01:08:48;;;;;;;713.20;66.53;;;;;;;;;;4767209;29;21003;-90
2024/01/15 01:11:17;;;;;;;744.90;70.53;;;;;;;;;;4782716;29;20037;-90
2024/01/15 01:13:44;;;;;;;746.10;71.07;;;;;;;;;;4776831;29;20068;-90
2024/01/15 01:16:10;;;;;;;730.00;70.32;;;;;;;;;;4756183;29;20057;-91
2024/01/15 01:18:37;;;;;;;746.50;70.80;;;;;;;;;;4781618;29;20045;-90
2024/01/15 01:21:04;;;;;;;745.17;71.05;;;;;;;;;;4779351;29;20045;-91
2024/01/15 01:23:31;;;;;;;743.53;71.68;;;;;;;;;;4782498;29;20049;-90
2024/01/15 01:25:58;;;;;;;695.25;66.70;;;;;;;;;;4763144;29;20059;-91
2024/01/15 01:28:26;;;;;;;757.08;74.75;;;;;;;;;;4781686;29;20060;-91
2024/01/15 01:30:53;;;;;;;740.42;71.85;;;;;;;;;;4780851;29;20075;-90
2024/01/15 01:33:19;;;;;;;789.85;76.43;;;;;;;;;;4780004;29;20041;-90
2024/01/15 01:35:47;;;;;;;785.10;75.65;;;;;;;;;;4781831;29;20069;-90
2024/01/15 01:38:13;;;;;;;780.10;75.80;;;;;;;;;;4780405;29;20029;-91
2024/01/15 01:40:40;;;;;;;754.83;73.32;;;;;;;;;;4755197;29;20057;-90
2024/01/15 01:43:08;;;;;;;776.28;76.28;;;;;;;;;;4777860;29;20056;-90
2024/01/15 01:45:35;;;;;;;745.80;71.35;;;;;;;;;;4781323;29;20128;-90
2024/01/15 01:48:02;;;;;;;699.22;67.55;;;;;;;;;;4782794;29;20882;-90
2024/01/15 01:50:31;;;;;;;735.55;71.18;;;;;;;;;;4778072;29;20975;-89
2024/01/15 01:52:58;;;;;;;767.42;74.95;;;;;;;;;;4778074;29;20140;-90
2024/01/15 01:55:26;;;;;;;780.83;76.55;;;;;;;;;;4781940;29;21028;-90
2024/01/15 01:57:54;;;;;;;763.20;74.47;;;;;;;;;;4781253;29;20049;-90
2024/01/15 02:03:09;;;;;;;769.10;74.47;;;;;;;;;;4719462;24;20390;-90
2024/01/15 02:05:37;;;;;;;753.75;72.65;;;;;;;;;;4735442;29;20045;-90
2024/01/15 02:08:03;;;;;;;769.88;75.55;;;;;;;;;;4715366;29;20054;-90
2024/01/15 02:10:30;;;;;;;758.78;73.93;;;;;;;;;;4715908;29;20061;-90
2024/01/15 02:12:57;;;;;;;827.28;81.55;;;;;;;;;;4736795;29;21014;-90
2024/01/15 02:15:24;;;;;;;731.83;70.97;;;;;;;;;;4726909;29;20905;-89
2024/01/15 02:18:01;;;;;;;845.78;85.45;;;;;;;;;;4738338;29;20948;-90
2024/01/15 02:20:28;;;;;;;798.38;78.68;;;;;;;;;;4726094;29;20891;-89
2024/01/15 02:23:08;;;;;;;838.97;82.45;;;;;;;;;;4730008;29;20034;-89
2024/01/15 02:25:35;;;;;;;849.17;83.30;;;;;;;;;;4731069;29;20226;-89
2024/01/15 02:28:02;;;;;;;798.97;78.80;;;;;;;;;;4727076;29;20145;-90
2024/01/15 02:30:30;;;;;;;793.83;78.93;;;;;;;;;;4730172;29;20038;-89
2024/01/15 02:32:56;;;;;;;870.90;87.60;;;;;;;;;;4710501;29;20031;-89
2024/01/15 02:35:24;;;;;;;792.70;78.30;;;;;;;;;;4731608;29;20219;-89
2024/01/15 02:37:50;;;;;;;772.25;76.88;;;;;;;;;;4726791;29;20095;-89
2024/01/15 02:40:17;;;;;;;949.03;96.85;;;;;;;;;;4729003;29;20046;-90
2024/01/15 02:42:43;;;;;;;826.50;82.38;;;;;;;;;;4720270;29;20571;-90
2024/01/15 02:45:10;;;;;;;808.72;80.85;;;;;;;;;;4730552;29;21010;-90
2024/01/15 02:47:37;;;;;;;845.50;84.70;;;;;;;;;;4731541;29;20049;-90
2024/01/15 02:50:04;;;;;;;778.60;78.00;;;;;;;;;;4722939;29;20046;-90
2024/01/15 02:52:31;;;;;;;816.25;81.15;;;;;;;;;;4731036;29;20637;-89
2024/01/15 02:54:58;;;;;;;815.67;80.45;;;;;;;;;;4725455;29;20043;-89
2024/01/15 02:57:24;;;;;;;837.47;83.05;;;;;;;;;;4724811;29;20105;-89
2024/01/15 02:59:51;;;;;;;781.50;77.72;;;;;;;;;;4730705;29;20104;-90
2024/01/15 03:02:18;;;;;;;929.47;94.82;;;;;;;;;;4722486;29;20058;-89
2024/01/15 03:04:44;;;;;;;855.42;86.05;;;;;;;;;;4735945;29;20046;-90
2024/01/15 03:07:11;;;;;;;812.72;80.80;;;;;;;;;;4708999;29;20819;-91
2024/01/15 03:09:38;;;;;;;871.70;85.57;;;;;;;;;;4729266;29;20042;-90
2024/01/15 03:12:05;;;;;;;784.17;77.45;;;;;;;;;;4725649;29;20111;-88
2024/01/15 03:14:32;;;;;;;780.15;77.68;;;;;;;;;;4711872;29;20147;-89
2024/01/15 03:17:00;;;;;;;819.63;81.10;;;;;;;;;;4737262;29;20080;-89
2024/01/15 03:19:27;;;;;;;726.05;70.63;;;;;;;;;;4723925;29;20137;-89
2024/01/15 03:21:54;;;;;;;761.40;74.47;;;;;;;;;;4716364;29;20336;-89
2024/01/15 03:24:21;;;;;;;900.03;90.88;;;;;;;;;;4709638;29;20152;-89
2024/01/15 03:26:48;;;;;;;807.78;79.45;;;;;;;;;;4730787;29;20046;-89
2024/01/15 03:29:15;;;;;;;778.13;77.07;;;;;;;;;;4718545;29;20049;-89
2024/01/15 03:31:42;;;;;;;849.38;84.07;;;;;;;;;;4728251;29;20049;-89
2024/01/15 03:34:08;;;;;;;806.03;80.35;;;;;;;;;;4736618;29;20046;-89
2024/01/15 03:36:35;;;;;;;756.45;74.78;;;;;;;;;;4730929;29;20303;-91
2024/01/15 03:39:02;;;;;;;768.42;75.78;;;;;;;;;;4735716;29;20054;-91
2024/01/15 03:41:29;;;;;;;775.47;76.88;;;;;;;;;;4727946;29;20046;-91
2024/01/15 03:43:55;;;;;;;781.53;77.38;;;;;;;;;;4712373;29;20941;-91
2024/01/15 03:46:22;;;;;;;883.30;89.80;;;;;;;;;;4719840;29;20041;-89
2024/01/15 03:48:49;;;;;;;776.95;76.65;;;;;;;;;;4728166;29;20931;-89
2024/01/15 03:51:17;;;;;;;796.38;79.00;;;;;;;;;;4736895;29;21208;-89
2024/01/15 03:53:44;;;;;;;863.22;86.35;;;;;;;;;;4731051;29;20183;-89
2024/01/15 03:56:10;;;;;;;844.38;83.78;;;;;;;;;;4735960;29;20046;-88
2024/01/15 03:58:37;;;;;;;770.45;77.28;;;;;;;;;;4746602;29;20056;-89
2024/01/15 04:01:07;;;;;;;779.78;76.70;;;;;;;;;;4730549;29;20359;-89
2024/01/15 04:03:34;;;;;;;822.28;81.53;;;;;;;;;;4736987;29;20993;-89
2024/01/15 04:06:01;;;;;;;717.47;70.18;;;;;;;;;;4728292;29;20118;-89
2024/01/15 04:08:28;;;;;;;741.13;72.88;;;;;;;;;;4736980;29;20050;-89
2024/01/15 04:10:55;;;;;;;750.50;73.38;;;;;;;;;;4735144;29;20148;-89
2024/01/15 04:13:21;;;;;;;752.28;73.88;;;;;;;;;;4742056;29;20041;-89
2024/01/15 04:15:48;;;;;;;768.80;75.68;;;;;;;;;;4742159;29;20037;-91
2024/01/15 04:18:16;;;;;;;709.15;67.55;;;;;;;;;;4732471;29;20042;-89
2024/01/15 04:20:42;;;;;;;715.47;70.63;;;;;;;;;;4744304;29;20045;-89
2024/01/15 04:23:10;;;;;;;785.90;77.72;;;;;;;;;;4731677;29;20054;-89
2024/01/15 04:25:36;;;;;;;758.05;75.75;;;;;;;;;;4739026;29;20037;-89
2024/01/15 04:28:04;;;;;;;748.58;74.25;;;;;;;;;;4740469;29;20057;-89
2024/01/15 04:30:31;;;;;;;769.50;77.93;;;;;;;;;;4732081;29;20138;-88
2024/01/15 04:32:58;;;;;;;805.92;81.25;;;;;;;;;;4736691;29;20925;-88
2024/01/15 04:35:24;;;;;;;757.88;76.20;;;;;;;;;;4751570;29;20122;-89
2024/01/15 04:37:51;;;;;;;742.55;73.15;;;;;;;;;;4738144;29;20057;-88
2024/01/15 04:40:18;;;;;;;837.22;84.13;;;;;;;;;;4730987;29;20608;-88
2024/01/15 04:42:45;;;;;;;741.03;72.05;;;;;;;;;;4718100;29;20037;-90
2024/01/15 04:45:12;;;;;;;797.60;79.80;;;;;;;;;;4720670;29;20058;-91
2024/01/15 04:47:39;;;;;;;716.25;71.05;;;;;;;;;;4732316;29;20046;-90
2024/01/15 04:50:07;;;;;;;737.35;71.80;;;;;;;;;;4740195;29;20046;-91
2024/01/15 04:52:33;;;;;;;715.78;69.95;;;;;;;;;;4732063;29;20960;-89
2024/01/15 04:55:00;;;;;;;756.25;74.50;;;;;;;;;;4740293;29;20940;-91
2024/01/15 04:57:27;;;;;;;709.03;68.85;;;;;;;;;;4741699;29;20061;-91
2024/01/15 04:59:53;;;;;;;704.85;69.13;;;;;;;;;;4741807;29;20049;-91
2024/01/15 05:02:20;;;;;;;740.75;70.60;;;;;;;;;;4748137;29;21048;-91
2024/01/15 05:04:47;;;;;;;719.05;70.13;;;;;;;;;;4741076;29;20045;-91
2024/01/15 05:07:13;;;;;;;701.85;69.55;;;;;;;;;;4713794;29;20046;-91
2024/01/15 05:09:40;;;;;;;714.55;70.20;;;;;;;;;;4748347;29;20054;-91
2024/01/15 05:12:07;;;;;;;654.50;62.47;;;;;;;;;;4715031;29;20334;-92
2024/01/15 05:14:33;;;;;;;694.28;66.45;;;;;;;;;;4741568;29;20977;-88
2024/01/15 05:17:00;;;;;;;713.53;68.57;;;;;;;;;;4744315;29;20047;-89
2024/01/15 05:19:27;;;;;;;738.92;72.68;;;;;;;;;;4749585;29;20049;-89
2024/01/15 05:21:54;;;;;;;692.88;67.38;;;;;;;;;;4745583;29;20042;-89
2024/01/15 05:24:21;;;;;;;701.42;68.78;;;;;;;;;;4749088;29;20050;-89
2024/01/15 05:26:47;;;;;;;691.53;66.47;;;;;;;;;;4744028;29;20038;-89
2024/01/15 05:29:14;;;;;;;612.78;59.00;;;;;;;;;;4730416;29;20571;-89
2024/01/15 05:31:41;;;;;;;634.15;60.20;;;;;;;;;;4759804;29;20053;-89
2024/01/15 05:34:08;;;;;;;668.33;63.95;;;;;;;;;;4740982;29;20046;-89
2024/01/15 05:36:35;;;;;;;656.53;63.20;;;;;;;;;;4752698;29;20053;-92
2024/01/15 05:39:02;;;;;;;746.28;72.30;;;;;;;;;;4752386;29;20177;-91
2024/01/15 05:41:29;;;;;;;695.97;67.35;;;;;;;;;;4754022;29;20049;-91
2024/01/15 05:43:56;;;;;;;694.92;67.38;;;;;;;;;;4750157;29;20069;-90
2024/01/15 05:46:22;;;;;;;759.70;73.78;;;;;;;;;;4745221;29;20050;-89
2024/01/15 05:48:49;;;;;;;703.67;67.18;;;;;;;;;;4755856;29;20049;-89
2024/01/15 05:51:16;;;;;;;624.40;58.95;;;;;;;;;;4753419;29;20057;-91
2024/01/15 05:53:44;;;;;;;495.67;46.38;;;;;;;;;;4762227;29;20807;-91
2024/01/15 05:56:11;;;;;;;695.65;67.40;;;;;;;;;;4755970;29;20948;-91
2024/01/15 05:58:38;;;;;;;647.35;63.45;;;;;;;;;;4733274;29;20172;-89
2024/01/15 06:01:05;;;;;;;613.83;58.10;;;;;;;;;;4766840;29;20072;-91
2024/01/15 06:03:34;;;;;;;640.65;61.60;;;;;;;;;;4737290;29;20905;-89
2024/01/15 06:06:01;;;;;;;587.70;55.28;;;;;;;;;;4758490;29;20050;-90
2024/01/15 06:08:27;;;;;;;560.20;51.10;;;;;;;;;;4751036;29;20062;-89
2024/01/15 06:10:56;;;;;;;647.70;61.58;;;;;;;;;;4760273;29;20950;-89
2024/01/15 06:13:26;;;;;;;649.90;61.40;;;;;;;;;;4760818;29;20048;-89
2024/01/15 06:15:53;;;;;;;566.72;52.85;;;;;;;;;;4750275;29;20622;-89
2024/01/15 06:18:19;;;;;;;547.92;52.50;;;;;;;;;;4753894;29;20138;-91
2024/01/15 06:20:46;;;;;;;601.30;56.17;;;;;;;;;;4758092;29;20041;-89
2024/01/15 06:23:14;;;;;;;398.15;38.42;;;;;;;;;;4762551;29;20042;-91
2024/01/15 06:26:09;;;;;;;656.95;62.78;;;;;;;;;;4754459;29;20904;-92
2024/01/15 06:28:36;;;;;;;329.98;31.20;;;;;;;;;;4781537;29;20974;-92
2024/01/15 06:31:03;;;;;;;707.47;69.35;;;;;;;;;;4785438;29;20490;-93
2024/01/15 06:33:30;;;;;;;539.05;49.78;;;;;;;;;;4751489;29;20848;-90
2024/01/15 06:35:57;;;;;;;616.70;58.58;;;;;;;;;;4774703;29;20744;-89
2024/01/15 06:38:25;;;;;;;566.05;53.88;;;;;;;;;;4772253;29;20042;-89
2024/01/15 06:40:51;;;;;;;551.20;52.80;;;;;;;;;;4772000;29;20049;-88
2024/01/15 06:43:19;;;;;;;692.55;66.45;;;;;;;;;;4746543;29;20057;-89
2024/01/15 06:45:46;;;;;;;676.10;63.63;;;;;;;;;;4740572;29;20038;-88
2024/01/15 06:48:22;;;;;;;627.97;58.17;;;;;;;;;;4743971;29;20065;-91
2024/01/15 06:50:49;;;;;;;697.63;65.97;;;;;;;;;;4759996;29;20049;-91
2024/01/15 06:53:16;;;;;;;586.03;54.95;;;;;;;;;;4741629;29;20216;-88
2024/01/15 06:55:42;;;;;;;638.78;60.15;;;;;;;;;;4757833;29;20045;-88
2024/01/15 06:58:09;;;;;;;608.70;56.67;;;;;;;;;;4758351;29;20575;-88
2024/01/15 07:00:36;;;;;;;648.10;61.22;;;;;;;;;;4743110;29;20198;-88
2024/01/15 07:03:03;;;;;;;707.00;67.88;;;;;;;;;;4728351;29;20046;-89
2024/01/15 07:05:30;;;;;;;695.75;65.80;;;;;;;;;;4735526;29;20104;-90
2024/01/15 07:07:57;;;;;;;672.17;64.10;;;;;;;;;;4747609;29;20037;-89
2024/01/15 07:10:24;;;;;;;756.95;74.22;;;;;;;;;;4742913;29;20115;-89
2024/01/15 07:12:50;;;;;;;674.50;63.75;;;;;;;;;;4748855;29;20803;-89
2024/01/15 07:15:17;;;;;;;569.67;52.92;;;;;;;;;;4742011;29;20062;-89
2024/01/15 07:17:44;;;;;;;634.17;61.28;;;;;;;;;;4754729;29;20908;-89
2024/01/15 07:20:11;;;;;;;603.08;57.63;;;;;;;;;;4752041;29;20046;-88
2024/01/15 07:22:38;;;;;;;631.17;60.20;;;;;;;;;;4752977;29;20043;-89
2024/01/15 07:25:05;;;;;;;627.78;60.55;;;;;;;;;;4752637;29;20760;-89
2024/01/15 07:27:32;;;;;;;639.70;62.33;;;;;;;;;;4758025;29;20042;-88
2024/01/15 07:29:59;;;;;;;600.35;57.08;;;;;;;;;;4755581;29;20271;-88
2024/01/15 07:32:28;;;;;;;644.67;63.10;;;;;;;;;;4758838;29;20065;-89
2024/01/15 07:34:55;;;;;;;622.05;60.17;;;;;;;;;;4746748;29;20062;-89
2024/01/15 07:37:23;;;;;;;570.42;54.60;;;;;;;;;;4756461;29;20038;-89
2024/01/15 07:39:50;;;;;;;626.55;59.53;;;;;;;;;;4762105;29;20054;-90
2024/01/15 07:42:16;;;;;;;706.25;69.10;;;;;;;;;;4743980;29;20160;-89
2024/01/15 07:44:44;;;;;;;645.35;61.95;;;;;;;;;;4748432;29;20252;-91
2024/01/15 07:47:11;;;;;;;708.88;69.90;;;;;;;;;;4739348;29;20038;-88
2024/01/15 07:49:38;;;;;;;703.95;68.03;;;;;;;;;;4746021;29;20054;-88
2024/01/15 07:52:05;;;;;;;701.20;67.78;;;;;;;;;;4732083;29;20880;-90
2024/01/15 07:54:32;;;;;;;669.75;64.10;;;;;;;;;;4716690;29;20141;-89
2024/01/15 07:57:00;;;;;;;761.47;75.93;;;;;;;;;;4746929;29;20576;-88
2024/01/15 07:59:26;;;;;;;635.55;61.35;;;;;;;;;;4723308;29;20048;-88
2024/01/15 08:01:53;;;;;;;695.03;67.35;;;;;;;;;;4746058;29;20572;-88
2024/01/15 08:04:20;;;;;;;745.17;73.88;;;;;;;;;;4746289;29;20049;-88
2024/01/15 08:06:47;;;;;;;736.88;72.47;;;;;;;;;;4739330;29;20034;-88
2024/01/15 08:09:14;;;;;;;707.15;68.90;;;;;;;;;;4745486;29;20094;-88
2024/01/15 08:11:43;;;;;;;498.92;47.25;;;;;;;;;;4744404;29;20070;-90
2024/01/15 08:14:10;;;;;;;706.05;68.60;;;;;;;;;;4744749;29;21179;-88
2024/01/15 08:16:37;;;;;;;693.92;66.78;;;;;;;;;;4733172;29;20097;-88
2024/01/15 08:19:05;;;;;;;739.53;71.10;;;;;;;;;;4719350;29;20299;-88
2024/01/15 08:21:32;;;;;;;751.13;72.25;;;;;;;;;;4742735;29;20050;-88
2024/01/15 08:24:00;;;;;;;739.33;71.28;;;;;;;;;;4738500;29;20148;-88
2024/01/15 08:26:26;;;;;;;789.45;75.95;;;;;;;;;;4737542;29;20038;-89
2024/01/15 08:28:53;;;;;;;852.65;84.63;;;;;;;;;;4734584;29;20045;-89
2024/01/15 08:31:19;;;;;;;741.20;71.78;;;;;;;;;;4736555;29;20214;-89
2024/01/15 08:33:46;;;;;;;803.67;77.10;;;;;;;;;;4727660;29;20049;-90
2024/01/15 08:36:13;;;;;;;716.58;68.15;;;;;;;;;;4741869;29;20049;-90
2024/01/15 08:38:40;;;;;;;735.63;69.10;;;;;;;;;;4742419;29;20207;-92
2024/01/15 08:41:08;;;;;;;682.72;64.30;;;;;;;;;;4734166;29;20968;-92
2024/01/15 08:43:34;;;;;;;811.47;81.05;;;;;;;;;;4751395;29;20579;-90
2024/01/15 08:46:01;;;;;;;758.58;70.63;;;;;;;;;;4760326;29;20080;-89
2024/01/15 08:48:28;;;;;;;846.17;83.93;;;;;;;;;;4734321;29;20489;-89
2024/01/15 08:50:56;;;;;;;740.90;74.90;;;;;;;;;;4765036;29;20034;-90
2024/01/15 08:53:23;;;;;;;818.55;81.75;;;;;;;;;;4763237;29;20046;-91
2024/01/15 08:55:50;;;;;;;784.88;76.72;;;;;;;;;;4747945;29;20022;-90
2024/01/15 08:58:17;;;;;;;932.50;94.63;;;;;;;;;;4736305;29;20042;-88
2024/01/15 09:00:44;;;;;;;823.03;81.15;;;;;;;;;;4741234;29;21052;-89
2024/01/15 09:03:11;;;;;;;850.47;84.88;;;;;;;;;;4720839;29;20886;-89
2024/01/15 09:05:38;;;;;;;937.70;96.20;;;;;;;;;;4747817;29;20551;-88
2024/01/15 09:08:05;;;;;;;833.13;83.50;;;;;;;;;;4747603;29;20046;-89
2024/01/15 09:10:32;;;;;;;861.25;85.93;;;;;;;;;;4741610;29;20049;-89
2024/01/15 09:13:00;;;;;;;868.17;86.43;;;;;;;;;;4741810;29;20042;-88
2024/01/15 09:15:27;;;;;;;919.83;93.00;;;;;;;;;;4718365;29;20042;-87
2024/01/15 09:17:54;;;;;;;818.22;79.70;;;;;;;;;;4732046;29;20038;-88
2024/01/15 09:20:21;;;;;;;852.50;84.38;;;;;;;;;;4731371;29;20042;-87
2024/01/15 09:22:47;;;;;;;802.20;78.75;;;;;;;;;;4728489;29;20041;-89
2024/01/15 09:25:14;;;;;;;761.67;74.38;;;;;;;;;;4730319;29;20045;-88
2024/01/15 09:28:07;;;;;;;343.73;29.08;;;;;;;;;;4780871;29;20511;-92
2024/01/15 09:30:34;;;;;;;264.25;24.17;;;;;;;;;;4708364;29;20449;-92
2024/01/15 09:34:02;;;;;;;361.95;32.20;;;;;;;;;;4768509;29;20087;-93
2024/01/15 09:37:34;;;;;;;121.82;13.48;;;;;;;;;;4773750;29;20137;-93
2024/01/15 09:40:25;;;;;;;468.17;40.42;;;;;;;;;;4737164;29;20968;-92
2024/01/15 09:42:54;;;;;;;572.25;51.50;;;;;;;;;;4788953;29;20874;-93
2024/01/15 09:45:24;;;;;;;434.85;37.30;;;;;;;;;;4756838;29;20046;-92
2024/01/15 09:48:24;;;;;;;592.25;54.30;;;;;;;;;;4734031;29;20161;-92
2024/01/15 09:51:18;;;;;;;424.92;36.08;;;;;;;;;;4765955;29;20310;-93
2024/01/15 09:54:36;;;;;;;429.00;37.13;;;;;;;;;;4775020;29;20197;-93
2024/01/15 09:57:36;;;;;;;;;;;;;;;;;;;;;
2024/01/15 10:00:11;;;;;;;685.97;63.55;;;;;;;;;;4773023;29;20152;-93
2024/01/15 10:02:50;;;;;;;703.42;65.82;;;;;;;;;;4723710;29;20053;-93
2024/01/15 10:05:17;;;;;;;626.25;57.17;;;;;;;;;;4732989;29;20069;-93
2024/01/15 10:07:48;;;;;;;698.80;64.68;;;;;;;;;;4705987;29;20158;-93
2024/01/15 10:10:29;;;;;;;716.90;65.28;;;;;;;;;;4713345;29;20046;-93
2024/01/15 10:13:10;;;;;;;704.58;66.30;;;;;;;;;;4698733;29;20157;-93
2024/01/15 10:15:47;;;;;;;;;;;;;;;;;;4734287;29;20351;-92
2024/01/15 10:18:31;;;;;;;737.58;68.50;;;;;;;;;;4731989;29;19932;-92
2024/01/15 10:21:26;;;;;;;565.22;50.80;;;;;;;;;;4738313;29;20074;-93
2024/01/15 10:23:57;;;;;;;423.60;37.40;;;;;;;;;;4735793;29;20042;-92
2024/01/15 10:34:17;;;;;;;486.50;40.92;;;;;;;;;;4701581;30;20056;-93
2024/01/15 10:37:17;;;;;;;511.00;44.38;;;;;;;;;;4705315;30;20598;-93
2024/01/15 10:40:20;;;;;;;;;;;;;;;;;;;;;
2024/01/15 10:43:20;;;;;;;616.67;54.95;;;;;;;;;;4689202;30;20907;-94
2024/01/15 10:46:06;;;;;;;703.03;63.78;;;;;;;;;;4665555;30;20062;-93
2024/01/15 10:48:44;;;;;;;688.28;63.40;;;;;;;;;;4659091;30;20055;-92
2024/01/15 10:51:50;;;;;;;726.20;66.43;;;;;;;;;;4643063;30;20436;-92
2024/01/15 10:54:29;;;;;;;687.38;61.55;;;;;;;;;;4659144;30;20044;-93
2024/01/15 10:57:05;;;;;;;619.30;54.78;;;;;;;;;;4679435;30;20166;-93
2024/01/15 10:59:33;;;;;;;635.47;56.45;;;;;;;;;;4673710;30;20052;-93
2024/01/15 11:02:08;;;;;;;590.60;50.03;;;;;;;;;;4704264;29;20109;-93
2024/01/15 11:05:22;;;;;;;;;;;;;;;;;;;;;
2024/01/15 11:08:47;;;;;;;;;;;;;;;;;;;;;
2024/01/15 11:11:41;;;;;;;537.17;45.90;;;;;;;;;;4723389;29;20542;-93
2024/01/15 11:14:44;;;;;;;687.78;62.80;;;;;;;;;;4728397;29;20681;-93
2024/01/15 11:17:30;;;;;;;;;;;;;;;;;;;;;
2024/01/15 11:20:32;;;;;;;696.67;63.58;;;;;;;;;;4751366;29;20882;-92
2024/01/15 11:23:01;;;;;;;712.20;66.38;;;;;;;;;;4719405;29;20158;-93
2024/01/15 11:25:37;;;;;;;762.05;71.38;;;;;;;;;;4735550;29;20070;-92
2024/01/15 11:28:09;;;;;;;655.92;60.72;;;;;;;;;;4732040;29;20046;-93
2024/01/15 11:30:36;;;;;;;684.28;62.92;;;;;;;;;;4762564;29;20173;-92
2024/01/15 11:33:09;;;;;;;740.58;69.45;;;;;;;;;;4729773;29;20544;-92
2024/01/15 11:35:49;;;;;;;668.95;61.05;;;;;;;;;;4733900;29;20045;-94
2024/01/15 11:41:48;;;;;;;656.42;58.58;;;;;;;;;;4714577;29;20227;-92
2024/01/15 11:44:35;;;;;;;711.63;65.18;;;;;;;;;;4778716;29;20046;-93
2024/01/15 11:47:29;;;;;;;652.60;60.20;;;;;;;;;;4757576;29;20052;-91
2024/01/15 11:50:11;;;;;;;;;;;;;;;;;;;;;
2024/01/15 11:52:58;;;;;;;695.17;65.93;;;;;;;;;;4749831;29;20118;-92
2024/01/15 11:55:36;;;;;;;789.80;75.38;;;;;;;;;;4739755;29;20049;-90
2024/01/15 14:11:15;;;;;;;337.33;26.20;;;;;;;;;;4822767;29;20075;-90
2024/01/15 16:32:22;;;;;;;837.00;76.90;;;;;;;;;;4788983;29;20077;-90
2024/01/15 16:36:16;;;;;;;;;;;;;;;;;;;;;
2024/01/15 17:07:13;;;;;;;687.67;63.35;;;;;;;;;;4724348;29;20041;-90
2024/01/15 17:22:02;;;;;;;392.02;32.53;;;;;;;;;;4841125;29;20056;-92
2024/01/15 17:29:55;;;;;;;680.88;61.22;;;;;;;;;;4705998;30;20189;-90
2024/01/15 17:32:25;;;;;;;671.40;59.83;;;;;;;;;;4704743;30;20837;-90
2024/01/15 17:34:55;;;;;;;688.08;61.92;;;;;;;;;;4703470;30;20826;-90
2024/01/15 17:37:31;;;;;;;738.40;66.18;;;;;;;;;;4697037;30;20108;-90
2024/01/15 17:40:06;;;;;;;515.58;42.60;;;;;;;;;;4718362;30;20054;-91
2024/01/15 17:42:34;;;;;;;665.70;59.83;;;;;;;;;;4707693;30;20047;-89
2024/01/15 17:45:10;;;;;;;;;;;;;;;;;;;;;
2024/01/15 18:28:29;;;;;;;592.77;50.70;;;;;;;;;;4701609;29;20250;-89
2024/01/15 19:00:10;;;;;;;55.47;5.97;;;;;;;;;;4838715;29;20109;-92
2024/01/15 19:15:23;;;;;;;624.75;51.45;;;;;;;;;;4695690;30;20425;-89
2024/01/15 20:10:21;;;;;;;735.53;66.75;;;;;;;;;;4756656;29;20068;-89
2024/01/15 20:12:57;;;;;;;674.53;63.03;;;;;;;;;;4737614;29;20082;-87
2024/01/15 20:35:26;;;;;;;474.67;36.72;;;;;;;;;;4726843;30;20466;-92
2024/01/15 20:38:03;;;;;;;1035.43;95.45;;;;;;;;;;4639306;30;20571;-88
2024/01/15 20:40:30;;;;;;;1049.55;98.53;;;;;;;;;;4635525;30;20777;-87
2024/01/15 20:43:04;;;;;;;954.67;86.50;;;;;;;;;;4673208;30;20070;-89
2024/01/15 20:45:31;;;;;;;1057.85;101.82;;;;;;;;;;4666281;30;20047;-88
2024/01/15 20:48:00;;;;;;;1437.80;144.73;;;;;;;;;;4657267;30;20056;-88
2024/01/15 20:50:33;;;;;;;980.05;89.20;;;;;;;;;;4636348;30;20555;-88
2024/01/15 20:53:00;;;;;;;999.45;91.45;;;;;;;;;;4644004;30;20051;-89
2024/01/15 20:55:55;;;;;;;842.00;74.28;;;;;;;;;;4678199;30;20105;-91
2024/01/15 20:58:22;;;;;;;937.88;83.90;;;;;;;;;;4656643;30;20047;-90
2024/01/15 21:01:10;;;;;;;1095.60;101.38;;;;;;;;;;4641439;30;20047;-90
2024/01/15 21:03:38;;;;;;;1083.25;100.10;;;;;;;;;;4649269;29;20047;-87
2024/01/15 21:06:04;;;;;;;977.63;89.82;;;;;;;;;;4652644;30;20048;-88
2024/01/15 21:08:31;;;;;;;981.60;89.00;;;;;;;;;;4696775;29;20053;-87
2024/01/15 21:10:59;;;;;;;1070.60;99.95;;;;;;;;;;4718086;29;20079;-90
2024/01/15 21:13:27;;;;;;;1013.97;94.20;;;;;;;;;;4726713;29;20125;-88
2024/01/15 21:15:54;;;;;;;1024.47;95.80;;;;;;;;;;4721053;29;21190;-89
2024/01/15 21:18:20;;;;;;;1130.20;107.60;;;;;;;;;;4727229;29;20049;-87
2024/01/15 21:20:47;;;;;;;1062.50;98.38;;;;;;;;;;4714981;29;21175;-88
2024/01/15 21:23:37;;;;;;;1250.07;122.63;;;;;;;;;;4715871;29;20042;-88
2024/01/15 21:26:44;;;;;;;1079.90;99.30;;;;;;;;;;4647009;29;20107;-88
2024/01/15 21:29:23;;;;;;;1422.93;143.48;;;;;;;;;;4655008;30;20056;-88
2024/01/15 21:32:43;;;;;;;1335.95;128.73;;;;;;;;;;4616865;30;21274;-87
2024/01/15 21:35:16;;;;;;;1096.72;102.53;;;;;;;;;;4640489;30;20059;-87
